Time;durP1;ratioP1;P1;durP2;ratioP2;P2;SDS_P1;SDS_P2;PMS_P1;PMS_P2;Temp;Humidity;BMP_temperature;BMP_pressure;BME280_temperature;BME280_humidity;BME280_pressure;Samples;Min_cycle;Max_cycle;Signal;HPM_P1;HPM_P2
2021/06/22 00:00:34;;;;;;;7.87;7.07;;;19.50;99.90;;;;;;6160789;23;20434;-83
2021/06/22 00:03:02;;;;;;;7.30;6.70;;;19.50;99.90;;;;;;6160667;23;20418;-83
2021/06/22 00:05:30;;;;;;;8.03;7.33;;;19.50;99.90;;;;;;6160086;23;20450;-83
2021/06/22 00:08:00;;;;;;;7.37;6.73;;;19.50;99.90;;;;;;6161060;23;20502;-82
2021/06/22 00:10:30;;;;;;;7.40;6.70;;;19.40;99.90;;;;;;6134280;23;20426;-82
2021/06/22 00:12:57;;;;;;;8.00;7.40;;;19.20;99.90;;;;;;6160923;23;20727;-82
2021/06/22 00:15:25;;;;;;;9.00;8.13;;;19.20;99.90;;;;;;6161351;23;20402;-83
2021/06/22 00:17:53;;;;;;;8.77;8.07;;;19.10;99.90;;;;;;6162878;23;20420;-83
2021/06/22 00:20:23;;;;;;;8.70;8.10;;;19.10;99.90;;;;;;6162876;23;21020;-83
2021/06/22 00:22:50;;;;;;;9.47;8.67;;;19.10;99.90;;;;;;6162688;23;20997;-82
2021/06/22 00:25:19;;;;;;;9.03;8.20;;;19.00;99.90;;;;;;6162793;23;20501;-82
2021/06/22 00:27:46;;;;;;;10.20;9.40;;;19.00;99.90;;;;;;6162611;23;20414;-83
2021/06/22 00:30:14;;;;;;;8.57;7.97;;;19.00;99.90;;;;;;6163124;23;20518;-82
2021/06/22 00:32:41;;;;;;;8.50;7.90;;;19.00;99.90;;;;;;6162352;23;20434;-83
2021/06/22 00:35:10;;;;;;;8.07;7.47;;;19.00;99.90;;;;;;6163129;23;20477;-83
2021/06/22 00:37:38;;;;;;;8.53;7.90;;;19.00;99.90;;;;;;6162438;23;20425;-82
2021/06/22 00:40:06;;;;;;;8.40;7.70;;;19.00;99.90;;;;;;6162441;23;20430;-82
2021/06/22 00:42:33;;;;;;;9.60;8.73;;;18.90;99.90;;;;;;6162328;23;20420;-82
2021/06/22 00:45:04;;;;;;;8.87;8.03;;;18.80;99.90;;;;;;6161963;23;20414;-82
2021/06/22 00:47:31;;;;;;;10.33;9.33;;;18.80;99.90;;;;;;6163208;23;20398;-83
2021/06/22 00:49:59;;;;;;;9.63;8.53;;;18.70;99.90;;;;;;6162538;23;20461;-83
2021/06/22 00:52:27;;;;;;;9.57;8.83;;;18.70;99.90;;;;;;6162743;23;20411;-82
2021/06/22 00:54:56;;;;;;;9.60;7.07;;;18.70;99.90;;;;;;6163319;23;20419;-82
2021/06/22 00:57:24;;;;;;;9.37;7.83;;;18.60;99.90;;;;;;6162714;23;20424;-82
2021/06/22 00:59:52;;;;;;;7.67;7.10;;;18.60;99.90;;;;;;6162071;23;20414;-83
2021/06/22 01:02:19;;;;;;;9.90;9.03;;;18.50;99.90;;;;;;6162611;23;20486;-82
2021/06/22 01:04:45;;;;;;;8.60;7.90;;;18.50;99.90;;;;;;6162281;23;20418;-82
2021/06/22 01:07:13;;;;;;;8.60;7.90;;;18.50;99.90;;;;;;6161928;23;20451;-82
2021/06/22 01:09:43;;;;;;;8.67;7.80;;;18.50;99.90;;;;;;6161840;23;20417;-82
2021/06/22 01:12:11;;;;;;;8.50;7.83;;;18.50;99.90;;;;;;6162256;23;20737;-82
2021/06/22 01:14:42;;;;;;;7.93;7.33;;;18.50;99.90;;;;;;6162267;23;20469;-82
2021/06/22 01:17:09;;;;;;;8.20;7.60;;;18.50;99.90;;;;;;6162643;23;20402;-82
2021/06/22 01:19:36;;;;;;;9.00;8.10;;;18.50;99.90;;;;;;6162462;23;20421;-83
2021/06/22 01:22:05;;;;;;;8.30;7.70;;;18.60;99.90;;;;;;6165277;23;20409;-82
2021/06/22 01:24:32;;;;;;;8.97;8.07;;;18.50;99.90;;;;;;6172618;23;20410;-81
2021/06/22 01:26:59;;;;;;;8.03;7.50;;;18.50;99.90;;;;;;6170912;23;20555;-81
2021/06/22 01:29:27;;;;;;;7.43;6.93;;;18.50;99.90;;;;;;6167292;23;20417;-83
2021/06/22 01:31:55;;;;;;;8.07;7.47;;;18.50;99.90;;;;;;6162102;23;20430;-82
2021/06/22 01:34:22;;;;;;;8.37;7.67;;;18.50;99.90;;;;;;6161486;23;20414;-82
2021/06/22 01:36:50;;;;;;;8.07;7.37;;;18.60;99.90;;;;;;6162132;23;20403;-82
2021/06/22 01:39:19;;;;;;;7.80;7.13;;;18.60;99.90;;;;;;6161913;23;20437;-82
2021/06/22 01:41:46;;;;;;;6.87;6.37;;;18.60;99.90;;;;;;6160790;23;20432;-82
2021/06/22 01:44:16;;;;;;;6.90;6.10;;;18.70;99.90;;;;;;6162273;23;20418;-82
2021/06/22 01:46:42;;;;;;;7.40;6.87;;;18.60;99.90;;;;;;6162460;23;20446;-82
2021/06/22 01:49:09;;;;;;;7.67;6.67;;;18.60;99.90;;;;;;6162403;23;20425;-82
2021/06/22 01:51:36;;;;;;;8.23;7.63;;;18.50;99.90;;;;;;6161438;23;20428;-82
2021/06/22 01:54:03;;;;;;;7.53;6.93;;;18.50;99.90;;;;;;6161932;23;20504;-82
2021/06/22 01:56:33;;;;;;;7.60;6.47;;;18.50;99.90;;;;;;6162701;23;20422;-83
2021/06/22 01:59:01;;;;;;;8.60;7.30;;;18.40;99.90;;;;;;6164155;23;20428;-84
2021/06/22 02:01:28;;;;;;;8.93;8.20;;;18.40;99.90;;;;;;6163635;23;20429;-84
2021/06/22 02:03:55;;;;;;;8.57;7.67;;;18.40;99.90;;;;;;6163641;23;20755;-84
2021/06/22 02:06:22;;;;;;;8.13;7.40;;;18.40;99.90;;;;;;6163528;23;20450;-84
2021/06/22 02:08:49;;;;;;;8.03;7.40;;;18.30;99.90;;;;;;6162779;23;20920;-84
2021/06/22 02:11:16;;;;;;;7.53;6.70;;;18.40;99.90;;;;;;6163217;23;20433;-83
2021/06/22 02:13:45;;;;;;;8.77;8.07;;;18.40;99.90;;;;;;6163654;23;20418;-84
2021/06/22 02:16:12;;;;;;;7.43;6.73;;;18.40;99.90;;;;;;6163437;23;20493;-84
2021/06/22 02:18:38;;;;;;;8.43;7.57;;;18.40;99.90;;;;;;6163583;23;20409;-84
2021/06/22 02:21:06;;;;;;;8.23;7.63;;;18.30;99.90;;;;;;6164016;23;20932;-84
2021/06/22 02:23:34;;;;;;;8.20;7.50;;;18.30;99.90;;;;;;6162714;23;20480;-84
2021/06/22 02:26:01;;;;;;;9.13;7.77;;;18.40;99.90;;;;;;6163284;23;20472;-83
2021/06/22 02:28:28;;;;;;;8.63;7.87;;;18.40;99.90;;;;;;6163430;23;20436;-84
2021/06/22 02:30:58;;;;;;;8.40;7.60;;;18.40;99.90;;;;;;6163221;23;20443;-84
2021/06/22 02:33:25;;;;;;;7.90;7.20;;;18.40;99.90;;;;;;6161952;23;20414;-83
2021/06/22 02:35:52;;;;;;;9.20;8.40;;;18.40;99.90;;;;;;6162304;23;20423;-84
2021/06/22 02:38:19;;;;;;;9.73;7.73;;;18.40;99.90;;;;;;6162837;23;20755;-83
2021/06/22 02:40:46;;;;;;;8.10;7.50;;;18.40;99.90;;;;;;6163302;23;20405;-84
2021/06/22 02:43:14;;;;;;;11.13;8.93;;;18.40;99.90;;;;;;6162900;23;20421;-83
2021/06/22 02:45:41;;;;;;;7.53;7.03;;;18.50;99.90;;;;;;6162674;23;20421;-84
2021/06/22 02:48:10;;;;;;;9.47;8.63;;;18.50;99.90;;;;;;6163654;23;20740;-84
2021/06/22 02:50:39;;;;;;;9.50;8.70;;;18.50;99.90;;;;;;6163405;23;20525;-84
2021/06/22 02:53:06;;;;;;;10.37;9.30;;;18.50;99.90;;;;;;6163235;23;20419;-84
2021/06/22 02:55:33;;;;;;;9.00;8.30;;;18.60;99.90;;;;;;6163031;23;20431;-84
2021/06/22 02:58:00;;;;;;;10.97;9.87;;;18.60;99.90;;;;;;6163662;23;20406;-84
2021/06/22 03:00:29;;;;;;;9.43;8.60;;;18.60;99.90;;;;;;6174610;23;20512;-81
2021/06/22 03:02:56;;;;;;;8.13;7.33;;;18.60;99.90;;;;;;6180623;23;20445;-80
2021/06/22 03:05:24;;;;;;;8.00;7.50;;;18.60;99.90;;;;;;6180477;23;20521;-81
2021/06/22 03:07:51;;;;;;;8.37;7.67;;;18.70;99.90;;;;;;6180423;23;20442;-81
2021/06/22 03:10:20;;;;;;;10.10;6.50;;;18.70;99.90;;;;;;6180746;23;20490;-80
2021/06/22 03:12:47;;;;;;;8.13;7.30;;;18.70;99.90;;;;;;6180656;23;20473;-82
2021/06/22 03:15:15;;;;;;;6.90;6.40;;;18.70;99.90;;;;;;6180986;23;20461;-80
2021/06/22 03:17:42;;;;;;;7.33;6.73;;;18.70;99.90;;;;;;6180662;23;20394;-80
2021/06/22 03:20:11;;;;;;;7.30;6.43;;;18.60;99.90;;;;;;6180840;23;20524;-80
2021/06/22 03:22:39;;;;;;;7.23;6.73;;;18.70;99.90;;;;;;6180472;23;20416;-80
2021/06/22 03:25:11;;;;;;;8.23;7.63;;;18.70;99.90;;;;;;6179500;23;20473;-81
2021/06/22 03:27:38;;;;;;;9.73;8.83;;;18.70;99.90;;;;;;6179610;23;20441;-80
2021/06/22 03:30:06;;;;;;;8.80;8.20;;;18.70;99.90;;;;;;6178993;23;20409;-81
2021/06/22 03:32:33;;;;;;;9.93;8.77;;;18.70;99.90;;;;;;6179564;23;20437;-81
2021/06/22 03:35:00;;;;;;;10.13;9.20;;;18.70;99.90;;;;;;6179717;23;20424;-80
2021/06/22 03:37:28;;;;;;;11.30;10.23;;;18.70;99.90;;;;;;6179428;23;20402;-81
2021/06/22 03:39:56;;;;;;;9.03;8.23;;;18.70;99.90;;;;;;6179218;23;20414;-81
2021/06/22 03:42:23;;;;;;;8.17;7.57;;;18.70;99.90;;;;;;6171606;23;20709;-84
2021/06/22 03:44:50;;;;;;;8.87;8.17;;;18.70;99.90;;;;;;6162589;23;20411;-83
2021/06/22 03:47:19;;;;;;;8.73;8.03;;;18.70;99.90;;;;;;6162318;23;20509;-83
2021/06/22 03:49:45;;;;;;;9.47;8.77;;;18.70;99.90;;;;;;6161685;23;20421;-82
2021/06/22 03:52:12;;;;;;;9.50;8.80;;;18.80;99.90;;;;;;6162305;23;20413;-82
2021/06/22 03:54:39;;;;;;;8.70;7.97;;;18.70;99.90;;;;;;6162684;23;20415;-83
2021/06/22 03:57:07;;;;;;;9.33;8.63;;;18.80;99.90;;;;;;6161942;23;20420;-83
2021/06/22 03:59:34;;;;;;;13.03;9.80;;;18.80;99.90;;;;;;6162694;23;20418;-83
2021/06/22 04:02:00;;;;;;;11.00;9.90;;;18.80;99.90;;;;;;6165450;23;20433;-82
2021/06/22 04:04:27;;;;;;;9.70;8.30;;;18.90;99.90;;;;;;6180272;23;20390;-79
2021/06/22 04:06:54;;;;;;;10.03;9.23;;;18.80;99.90;;;;;;6180618;23;20439;-79
2021/06/22 04:09:25;;;;;;;9.50;8.60;;;18.80;99.90;;;;;;6180826;23;20421;-80
2021/06/22 04:11:52;;;;;;;10.70;9.90;;;18.90;99.90;;;;;;6179661;23;20437;-80
2021/06/22 04:14:20;;;;;;;10.50;9.33;;;18.90;99.90;;;;;;6179354;23;20506;-80
2021/06/22 04:16:47;;;;;;;9.47;8.57;;;18.90;99.90;;;;;;6179934;23;20470;-81
2021/06/22 04:19:14;;;;;;;9.53;8.73;;;18.90;99.90;;;;;;6179118;23;20478;-80
2021/06/22 04:21:41;;;;;;;11.03;10.13;;;19.00;99.90;;;;;;6179064;23;20499;-80
2021/06/22 04:24:08;;;;;;;12.80;11.60;;;19.00;99.90;;;;;;6178681;23;20465;-80
2021/06/22 04:26:35;;;;;;;11.87;10.93;;;19.00;99.90;;;;;;6178651;23;20459;-81
2021/06/22 04:29:02;;;;;;;11.60;10.53;;;19.10;99.90;;;;;;6179288;23;20466;-80
2021/06/22 04:31:31;;;;;;;13.20;12.00;;;19.10;99.90;;;;;;6178698;23;20505;-79
2021/06/22 04:33:58;;;;;;;14.90;13.53;;;19.10;99.90;;;;;;6177636;23;20500;-80
2021/06/22 04:36:24;;;;;;;16.37;14.90;;;19.20;99.90;;;;;;6176564;23;20434;-80
2021/06/22 04:38:51;;;;;;;18.90;17.20;;;19.20;99.90;;;;;;6175894;23;20943;-81
2021/06/22 04:41:22;;;;;;;17.80;16.10;;;19.20;99.90;;;;;;6176721;23;20499;-81
2021/06/22 04:43:52;;;;;;;18.57;16.87;;;19.30;99.90;;;;;;6170588;23;20408;-83
2021/06/22 04:46:22;;;;;;;16.80;15.40;;;19.30;99.90;;;;;;6162495;23;20419;-83
2021/06/22 04:48:50;;;;;;;16.40;14.90;;;19.30;99.90;;;;;;6167892;23;20420;-82
2021/06/22 04:51:16;;;;;;;17.00;15.60;;;19.30;99.90;;;;;;6163124;23;20538;-85
2021/06/22 04:53:43;;;;;;;17.83;16.23;;;19.30;99.90;;;;;;6162846;23;20429;-82
2021/06/22 04:56:10;;;;;;;17.90;15.67;;;19.30;99.90;;;;;;6162109;23;20436;-83
2021/06/22 04:58:37;;;;;;;16.90;15.30;;;19.40;99.90;;;;;;6162880;23;20407;-82
2021/06/22 05:01:05;;;;;;;16.60;15.07;;;19.50;99.90;;;;;;6162602;23;20440;-82
2021/06/22 05:03:32;;;;;;;15.27;13.67;;;19.50;99.90;;;;;;6163837;23;20412;-82
2021/06/22 05:06:01;;;;;;;16.67;15.27;;;19.60;99.90;;;;;;6163948;23;20417;-81
2021/06/22 05:08:28;;;;;;;17.23;15.73;;;19.70;99.90;;;;;;6163727;23;20474;-81
2021/06/22 05:10:54;;;;;;;18.27;16.67;;;19.80;99.90;;;;;;6163740;23;20441;-82
2021/06/22 05:13:21;;;;;;;15.80;14.40;;;19.80;99.90;;;;;;6163206;23;20407;-80
2021/06/22 05:15:48;;;;;;;14.50;13.13;;;19.80;99.90;;;;;;6164516;23;20445;-82
2021/06/22 05:18:15;;;;;;;16.13;14.70;;;19.90;99.90;;;;;;6163783;23;20481;-82
2021/06/22 05:20:42;;;;;;;14.97;13.60;;;19.90;99.90;;;;;;6163435;23;20431;-83
2021/06/22 05:23:10;;;;;;;16.03;14.57;;;20.00;99.90;;;;;;6163437;23;20420;-83
2021/06/22 05:25:37;;;;;;;16.03;14.63;;;19.90;99.90;;;;;;6163969;23;20429;-83
2021/06/22 05:28:04;;;;;;;17.43;15.70;;;20.00;99.90;;;;;;6163608;23;20453;-83
2021/06/22 05:30:31;;;;;;;17.07;15.10;;;19.90;99.90;;;;;;6163574;23;20945;-83
2021/06/22 05:32:58;;;;;;;16.77;15.37;;;20.00;99.90;;;;;;6163484;23;20406;-82
2021/06/22 05:35:25;;;;;;;17.10;15.70;;;19.90;99.90;;;;;;6164237;23;20411;-82
2021/06/22 05:37:51;;;;;;;17.07;15.17;;;19.90;99.90;;;;;;6163365;23;20417;-84
2021/06/22 05:40:22;;;;;;;15.10;13.67;;;20.00;99.90;;;;;;6162883;23;20461;-81
2021/06/22 05:42:49;;;;;;;14.13;12.70;;;20.10;99.90;;;;;;6162526;23;20388;-85
2021/06/22 05:45:16;;;;;;;14.83;13.50;;;20.20;99.90;;;;;;6163769;23;20421;-84
2021/06/22 05:47:43;;;;;;;13.37;12.30;;;20.30;99.90;;;;;;6163767;23;20442;-81
2021/06/22 05:50:11;;;;;;;12.60;11.60;;;20.40;99.90;;;;;;6163235;23;20430;-81
2021/06/22 05:52:38;;;;;;;12.33;11.23;;;20.50;99.90;;;;;;6163353;23;20415;-82
2021/06/22 05:55:16;;;;;;;13.63;12.30;;;20.60;99.90;;;;;;6163592;23;20418;-83
2021/06/22 05:57:46;;;;;;;13.40;12.30;;;20.70;99.90;;;;;;6162982;23;20450;-81
2021/06/22 06:00:14;;;;;;;12.90;11.87;;;20.70;99.90;;;;;;6163173;23;20521;-82
2021/06/22 06:02:43;;;;;;;14.03;12.80;;;20.70;99.90;;;;;;6162913;23;20800;-82
2021/06/22 06:05:34;;;;;;;13.00;11.90;;;20.70;99.90;;;;;;6163059;23;20442;-85
2021/06/22 06:08:09;;;;;;;10.53;9.63;;;20.70;99.90;;;;;;6163478;23;20426;-82
2021/06/22 06:10:50;;;;;;;13.20;11.83;;;20.60;99.90;;;;;;6161536;23;20438;-82
2021/06/22 06:13:20;;;;;;;11.77;10.80;;;20.70;99.90;;;;;;6162113;23;20375;-83
2021/06/22 06:15:59;;;;;;;11.27;10.27;;;20.70;99.90;;;;;;6161961;23;20530;-82
2021/06/22 06:18:41;;;;;;;12.10;11.10;;;20.70;99.90;;;;;;6162474;23;20395;-82
2021/06/22 06:21:10;;;;;;;12.90;11.60;;;20.80;99.90;;;;;;6162097;23;20450;-81
2021/06/22 06:23:41;;;;;;;10.97;10.07;;;20.90;99.90;;;;;;6162178;23;20419;-81
2021/06/22 06:26:13;;;;;;;12.00;10.90;;;21.00;99.90;;;;;;6161562;23;20487;-81
2021/06/22 06:29:09;;;;;;;11.20;10.30;;;21.00;99.90;;;;;;6161876;23;20943;-79
2021/06/22 06:31:43;;;;;;;12.93;11.67;;;21.10;99.90;;;;;;6162492;23;20764;-81
2021/06/22 06:34:38;;;;;;;12.23;11.00;;;21.10;99.90;;;;;;6163842;23;20402;-82
2021/06/22 06:37:12;;;;;;;12.43;10.73;;;21.20;99.90;;;;;;6161265;23;20411;-82
2021/06/22 06:39:40;;;;;;;10.83;9.93;;;21.20;99.90;;;;;;6163404;23;20390;-83
2021/06/22 06:42:09;;;;;;;11.53;10.47;;;21.10;99.90;;;;;;6162145;23;20474;-83
2021/06/22 06:44:37;;;;;;;13.70;12.27;;;21.00;99.90;;;;;;6162393;23;20396;-82
2021/06/22 06:47:12;;;;;;;11.87;10.83;;;21.00;99.90;;;;;;6162404;23;20478;-83
2021/06/22 06:49:48;;;;;;;10.67;9.87;;;20.90;99.90;;;;;;6160009;23;20399;-81
2021/06/22 06:52:18;;;;;;;9.93;9.00;;;21.00;99.90;;;;;;6162514;23;20402;-82
2021/06/22 06:54:46;;;;;;;11.37;10.40;;;21.00;99.90;;;;;;6162430;23;20422;-81
2021/06/22 06:57:18;;;;;;;11.03;10.13;;;21.20;99.90;;;;;;6162871;23;20422;-85
2021/06/22 07:00:11;;;;;;;10.87;9.97;;;21.20;99.90;;;;;;6163812;23;20379;-84
2021/06/22 07:05:54;;;;;;;9.27;8.53;;;21.20;99.90;;;;;;6140760;23;20769;-81
2021/06/22 07:08:31;;;;;;;11.33;10.43;;;21.20;99.90;;;;;;6161687;23;20998;-80
2021/06/22 07:11:20;;;;;;;10.20;9.50;;;21.20;99.90;;;;;;6162575;23;20451;-84
2021/06/22 07:16:50;;;;;;;9.80;8.93;;;21.40;99.90;;;;;;6160942;23;20426;-84
2021/06/22 07:19:22;;;;;;;8.97;8.17;;;21.60;99.90;;;;;;6164251;23;20465;-85
2021/06/22 07:22:09;;;;;;;8.67;7.93;;;21.70;99.90;;;;;;6163158;23;20934;-84
2021/06/22 07:24:57;;;;;;;7.03;6.33;;;21.80;99.90;;;;;;6163288;23;20404;-84
2021/06/22 07:27:33;;;;;;;6.50;6.00;;;21.90;99.90;;;;;;6163096;23;20857;-83
2021/06/22 07:33:14;;;;;;;6.87;6.37;;;22.10;99.90;;;;;;6161186;23;20895;-84
2021/06/22 07:35:52;;;;;;;6.60;6.20;;;22.30;99.90;;;;;;6162336;23;20746;-84
2021/06/22 07:38:19;;;;;;;7.37;6.67;;;22.50;99.90;;;;;;6162071;23;20431;-83
2021/06/22 07:41:09;;;;;;;6.90;6.40;;;22.70;99.90;;;;;;6161989;23;20418;-84
2021/06/22 07:43:59;;;;;;;7.30;6.70;;;22.90;99.90;;;;;;6162670;23;20374;-83
2021/06/22 07:46:36;;;;;;;6.73;6.10;;;23.20;99.90;;;;;;6145224;23;20422;-84
2021/06/22 07:49:08;;;;;;;7.13;6.33;;;23.40;99.90;;;;;;6162940;23;20425;-84
2021/06/22 07:51:37;;;;;;;6.90;6.30;;;23.30;99.90;;;;;;6162403;23;20444;-83
2021/06/22 07:54:08;;;;;;;5.83;5.30;;;23.30;99.90;;;;;;6162351;23;20417;-83
2021/06/22 07:56:39;;;;;;;5.80;5.30;;;23.10;99.90;;;;;;6164173;23;20915;-84
2021/06/22 07:59:22;;;;;;;5.40;5.00;;;23.00;99.90;;;;;;6168618;23;20455;-84
2021/06/22 08:02:25;;;;;;;5.43;4.80;;;22.90;99.90;;;;;;6163835;23;20756;-83
2021/06/22 08:04:56;;;;;;;4.50;4.10;;;22.80;99.90;;;;;;6164759;23;20493;-84
2021/06/22 08:10:17;;;;;;;3.60;3.30;;;22.70;99.90;;;;;;6167384;23;20469;-84
2021/06/22 08:12:51;;;;;;;3.40;3.20;;;22.60;99.90;;;;;;6180889;23;20415;-82
2021/06/22 08:18:12;;;;;;;3.87;3.13;;;22.60;99.90;;;;;;6115598;23;20402;-85
2021/06/22 08:24:34;;;;;;;3.03;2.83;;;22.60;99.90;;;;;;6088923;23;20952;-84
2021/06/22 08:27:21;;;;;;;4.33;3.30;;;22.60;99.90;;;;;;6072390;23;20434;-84
2021/06/22 09:08:39;;;;;;;4.37;3.97;;;22.00;99.90;;;;;;6194231;23;20443;-84
2021/06/22 09:11:09;;;;;;;4.80;4.40;;;22.00;99.90;;;;;;6192409;23;20497;-82
2021/06/22 09:38:40;;;;;;;7.17;6.53;;;22.00;99.90;;;;;;6197449;23;20934;-84
2021/06/22 09:41:43;;;;;;;7.77;7.27;;;22.10;99.90;;;;;;6209958;23;20458;-83
2021/06/22 09:57:30;;;;;;;12.07;10.97;;;22.60;99.90;;;;;;6109914;23;20529;-86
2021/06/22 10:00:49;;;;;;;10.13;9.23;;;22.50;99.90;;;;;;6201797;23;20435;-86
2021/06/22 10:06:37;;;;;;;9.87;9.07;;;22.20;99.90;;;;;;6195421;23;20410;-87
2021/06/22 10:09:56;;;;;;;;;;;;;;;;;;;;;
2021/06/22 10:12:53;;;;;;;9.80;9.10;;;21.90;99.90;;;;;;6045446;23;20467;-85
2021/06/22 10:15:22;;;;;;;9.70;8.90;;;21.80;99.90;;;;;;6181911;23;20450;-86
2021/06/22 10:18:03;;;;;;;9.50;8.70;;;21.80;99.90;;;;;;6200511;23;20439;-85
2021/06/22 10:20:33;;;;;;;9.53;8.37;;;21.90;99.90;;;;;;6199409;23;20462;-83
2021/06/22 10:23:00;;;;;;;9.77;8.77;;;21.90;99.90;;;;;;6198129;23;20420;-83
2021/06/22 10:25:30;;;;;;;10.50;9.70;;;22.00;99.90;;;;;;6195427;23;20418;-85
2021/06/22 10:28:03;;;;;;;10.50;9.50;;;22.10;99.90;;;;;;6198280;23;20427;-86
2021/06/22 10:30:32;;;;;;;9.20;8.57;;;21.90;99.90;;;;;;6197924;23;20442;-83
2021/06/22 10:33:01;;;;;;;11.10;10.10;;;21.80;99.90;;;;;;6198883;23;20412;-85
2021/06/22 10:35:27;;;;;;;10.37;9.53;;;21.60;99.90;;;;;;6196626;23;20406;-84
2021/06/22 10:37:58;;;;;;;10.43;9.53;;;21.50;99.90;;;;;;6195445;23;20423;-85
2021/06/22 10:40:27;;;;;;;11.50;10.50;;;21.40;99.90;;;;;;6194777;23;20443;-85
2021/06/22 10:42:56;;;;;;;10.90;10.10;;;21.20;99.90;;;;;;6194487;23;20420;-85
2021/06/22 10:45:25;;;;;;;10.33;9.53;;;21.20;99.90;;;;;;6195308;23;20414;-85
2021/06/22 10:47:56;;;;;;;10.30;9.50;;;21.00;99.90;;;;;;6193276;23;20420;-85
2021/06/22 10:50:40;;;;;;;10.30;9.30;;;20.90;99.90;;;;;;6193577;23;20433;-86
2021/06/22 10:53:08;;;;;;;11.97;9.67;;;20.70;99.90;;;;;;6193130;23;20378;-86
2021/06/22 10:56:16;;;;;;;9.47;8.70;;;20.70;99.90;;;;;;6191582;23;20412;-86
2021/06/22 10:59:03;;;;;;;8.07;7.47;;;20.50;99.90;;;;;;6191830;23;20398;-86
2021/06/22 11:02:01;;;;;;;7.70;7.10;;;20.50;99.90;;;;;;6192227;23;20472;-86
2021/06/22 11:04:28;;;;;;;6.30;5.80;;;20.40;99.90;;;;;;6194153;23;20394;-87
2021/06/22 11:07:25;;;;;;;8.57;7.80;;;20.30;99.90;;;;;;6194118;23;20399;-86
2021/06/22 11:10:16;;;;;;;7.53;6.97;;;20.30;99.90;;;;;;6194820;23;20818;-86
2021/06/22 11:12:48;;;;;;;7.40;6.80;;;20.20;99.90;;;;;;6193745;23;20853;-86
2021/06/22 11:15:14;;;;;;;7.13;6.63;;;20.20;99.90;;;;;;6195277;23;20484;-86
2021/06/22 11:18:01;;;;;;;7.87;7.27;;;20.10;99.90;;;;;;6195433;23;20402;-84
2021/06/22 11:20:31;;;;;;;7.97;7.27;;;19.90;99.90;;;;;;6192672;23;20429;-86
2021/06/22 11:23:11;;;;;;;7.90;7.20;;;19.90;99.90;;;;;;6192779;23;20424;-85
2021/06/22 11:26:04;;;;;;;8.87;7.50;;;19.90;99.90;;;;;;6191648;23;20401;-86
2021/06/22 11:28:54;;;;;;;8.73;7.93;;;19.70;99.90;;;;;;6192795;23;20449;-86
2021/06/22 11:32:01;;;;;;;9.17;8.27;;;19.60;99.90;;;;;;6191414;23;20433;-83
2021/06/22 11:35:01;;;;;;;8.23;7.63;;;19.50;99.90;;;;;;6187724;23;20413;-86
2021/06/22 11:37:40;;;;;;;9.93;9.13;;;19.50;99.90;;;;;;6187568;23;20417;-86
2021/06/22 11:40:12;;;;;;;9.77;9.00;;;19.40;99.90;;;;;;6191825;23;20447;-86
2021/06/22 11:42:47;;;;;;;10.47;9.40;;;19.30;99.90;;;;;;6191171;23;20417;-85
2021/06/22 11:49:01;;;;;;;8.90;8.10;;;19.30;99.90;;;;;;6204650;23;20417;-86
2021/06/22 11:52:11;;;;;;;7.10;6.40;;;19.30;99.90;;;;;;6190797;23;20456;-87
2021/06/22 11:55:28;;;;;;;8.70;8.00;;;19.30;99.90;;;;;;6069919;23;20447;-86
2021/06/22 11:58:41;;;;;;;;;;;;;;;;;;;;;
2021/06/22 12:04:40;;;;;;;6.97;6.47;;;19.20;99.90;;;;;;5983401;24;20411;-87
2021/06/22 12:07:51;;;;;;;7.03;6.40;;;19.30;99.90;;;;;;6188217;23;20519;-87
2021/06/22 12:10:28;;;;;;;7.60;6.60;;;19.20;99.90;;;;;;6191348;23;20852;-86
2021/06/22 12:19:52;;;;;;;;;;;;;;;;;;;;;
2021/06/22 12:22:35;;;;;;;7.83;7.13;;;19.00;99.90;;;;;;6097995;23;20438;-86
2021/06/22 12:28:25;;;;;;;;;;;;;;;;;;;;;
2021/06/22 12:31:32;;;;;;;8.53;7.63;;;18.90;99.90;;;;;;6192945;23;20408;-86
2021/06/22 12:34:33;;;;;;;8.03;7.23;;;18.90;99.90;;;;;;6193677;23;20412;-86
2021/06/22 12:37:38;;;;;;;8.37;7.60;;;18.80;99.90;;;;;;6193073;23;20400;-86
2021/06/22 13:11:33;;;;;;;5.30;4.80;;;20.20;99.90;;;;;;6196196;23;20971;-84
2021/06/22 13:14:21;;;;;;;4.30;4.00;;;20.50;99.90;;;;;;6193025;23;20496;-85
2021/06/22 13:30:05;;;;;;;;;;;;;;;;;;;;;
2021/06/22 13:36:48;;;;;;;4.83;4.43;;;23.10;99.90;;;;;;6039261;23;20516;-84
2021/06/22 13:39:16;;;;;;;4.80;4.30;;;23.20;99.90;;;;;;6182447;23;20423;-83
2021/06/22 13:41:49;;;;;;;4.20;3.80;;;23.10;99.90;;;;;;6192262;23;20435;-85
2021/06/22 13:44:37;;;;;;;4.87;4.47;;;23.10;99.90;;;;;;6194057;23;20786;-81
2021/06/22 13:47:07;;;;;;;5.70;4.40;;;23.10;99.90;;;;;;6192970;23;20404;-82
2021/06/22 13:49:40;;;;;;;4.80;4.40;;;23.40;99.90;;;;;;6191628;23;20442;-83
2021/06/22 13:52:08;;;;;;;4.50;4.10;;;23.70;99.90;;;;;;6192037;23;20410;-83
2021/06/22 13:54:35;;;;;;;4.20;3.90;;;24.00;99.90;;;;;;6192858;23;20402;-83
2021/06/22 13:57:05;;;;;;;3.97;3.67;;;24.40;99.90;;;;;;6192422;23;20933;-82
2021/06/22 13:59:32;;;;;;;4.07;3.77;;;24.80;99.90;;;;;;6189612;23;20406;-82
2021/06/22 14:01:59;;;;;;;3.97;3.57;;;25.40;99.90;;;;;;6188498;23;20754;-82
2021/06/22 14:04:27;;;;;;;3.63;3.43;;;25.80;99.90;;;;;;6189104;23;20420;-82
2021/06/22 14:06:54;;;;;;;2.70;2.50;;;26.20;99.90;;;;;;6189119;23;20415;-82
2021/06/22 14:09:21;;;;;;;4.37;4.07;;;26.60;99.90;;;;;;6188545;23;20440;-82
2021/06/22 14:11:48;;;;;;;3.40;3.20;;;27.00;99.90;;;;;;6188154;23;20508;-82
2021/06/22 14:14:15;;;;;;;3.20;3.00;;;27.60;99.90;;;;;;6189458;23;20417;-83
2021/06/22 14:16:43;;;;;;;3.10;2.90;;;28.00;99.90;;;;;;6188623;23;20412;-82
2021/06/22 14:19:10;;;;;;;2.27;2.17;;;28.40;99.90;;;;;;6190222;23;20439;-82
2021/06/22 14:21:38;;;;;;;2.40;1.70;;;29.00;99.90;;;;;;6191360;23;20432;-82
2021/06/22 14:24:05;;;;;;;3.30;3.10;;;29.50;99.90;;;;;;6191921;23;20505;-83
2021/06/22 14:27:15;;;;;;;2.70;2.50;;;29.80;99.90;;;;;;6189978;23;20424;-87
2021/06/22 14:29:46;;;;;;;2.00;1.90;;;30.20;99.90;;;;;;6178229;23;20449;-84
2021/06/22 14:32:13;;;;;;;2.23;2.13;;;30.90;99.90;;;;;;6192735;23;20929;-83
2021/06/22 14:34:40;;;;;;;2.60;2.40;;;31.30;99.90;;;;;;6188652;23;20409;-83
2021/06/22 14:37:09;;;;;;;2.30;2.20;;;31.60;99.20;;;;;;6193902;23;20411;-83
2021/06/22 14:39:35;;;;;;;3.00;2.50;;;31.80;99.80;;;;;;6192014;23;20405;-83
2021/06/22 14:42:02;;;;;;;2.27;2.07;;;32.10;97.90;;;;;;6191949;23;20441;-83
2021/06/22 14:44:29;;;;;;;3.53;2.37;;;32.30;96.30;;;;;;6192510;23;20489;-83
2021/06/22 14:46:56;;;;;;;2.60;2.40;;;32.40;95.40;;;;;;6192542;23;20413;-83
2021/06/22 14:49:23;;;;;;;4.03;2.37;;;32.60;95.40;;;;;;6191597;23;20445;-82
2021/06/22 14:51:50;;;;;;;2.23;2.07;;;32.60;95.20;;;;;;6189557;23;20434;-83
2021/06/22 14:54:18;;;;;;;1.83;1.73;;;32.40;94.20;;;;;;6189952;23;20922;-82
2021/06/22 14:56:45;;;;;;;2.17;2.07;;;32.10;93.20;;;;;;6189716;23;20415;-82
2021/06/22 14:59:12;;;;;;;2.10;2.00;;;31.90;94.30;;;;;;6190438;23;20399;-82
2021/06/22 15:01:39;;;;;;;2.40;2.20;;;31.40;93.70;;;;;;6189945;23;20428;-82
2021/06/22 15:04:07;;;;;;;2.10;2.00;;;31.10;93.50;;;;;;6196884;23;20420;-82
2021/06/22 15:06:33;;;;;;;2.43;2.30;;;30.90;94.70;;;;;;6200937;23;20414;-82
2021/06/22 15:09:00;;;;;;;3.00;2.60;;;30.60;96.00;;;;;;6196521;23;20415;-83
2021/06/22 15:11:29;;;;;;;1.80;1.70;;;30.60;98.00;;;;;;6190138;23;20460;-84
2021/06/22 15:13:56;;;;;;;2.10;1.97;;;30.80;99.70;;;;;;6191453;23;20415;-83
2021/06/22 15:16:23;;;;;;;2.70;2.60;;;31.20;98.70;;;;;;6191462;23;20402;-83
2021/06/22 15:18:50;;;;;;;2.30;2.10;;;31.80;99.90;;;;;;6192994;23;20414;-82
2021/06/22 15:21:17;;;;;;;2.43;2.23;;;32.60;99.30;;;;;;6190268;23;20455;-84
2021/06/22 15:23:44;;;;;;;2.90;2.10;;;33.20;98.20;;;;;;6189507;23;20412;-85
2021/06/22 15:26:11;;;;;;;3.33;2.80;;;33.30;95.30;;;;;;6190325;23;20419;-85
2021/06/22 15:28:39;;;;;;;2.47;2.37;;;33.10;93.10;;;;;;6191090;23;20722;-85
2021/06/22 15:31:06;;;;;;;2.43;2.20;;;32.70;91.00;;;;;;6191084;23;20458;-84
2021/06/22 15:33:34;;;;;;;2.30;2.20;;;32.40;92.60;;;;;;6189898;23;20907;-84
2021/06/22 15:36:03;;;;;;;2.23;2.07;;;32.00;92.40;;;;;;6190696;23;20896;-84
2021/06/22 15:38:30;;;;;;;2.57;2.40;;;31.30;92.10;;;;;;6188429;23;20766;-84
2021/06/22 15:40:56;;;;;;;2.67;2.50;;;30.60;92.30;;;;;;6189017;23;20436;-84
2021/06/22 15:43:26;;;;;;;3.13;2.93;;;29.80;93.10;;;;;;6189141;23;20417;-84
2021/06/22 15:45:55;;;;;;;2.70;2.40;;;29.10;93.20;;;;;;6188563;23;20428;-84
2021/06/22 15:48:22;;;;;;;2.60;2.40;;;28.70;95.10;;;;;;6190851;23;20409;-85
2021/06/22 15:50:48;;;;;;;2.77;2.67;;;28.10;95.30;;;;;;6189762;23;20454;-81
2021/06/22 15:53:15;;;;;;;3.17;2.97;;;27.40;96.20;;;;;;6189194;23;20441;-83
2021/06/22 15:55:44;;;;;;;3.63;3.33;;;27.20;96.70;;;;;;6188103;23;20745;-82
2021/06/22 15:58:11;;;;;;;3.80;3.00;;;27.00;99.00;;;;;;6188605;23;20413;-84